Terminal Aerodrome Forecast
Issued by NWS

Home | Current Version | Previous Version | Text Only | Print | Product List | Glossary On
Versions: 1 2 3 4 5 6 7 8 9 10 11 12 13 14 15 16 17 18
000
FTUS43 KDLH 250500 AAA
TAFHYR
TAF AMD
KHYR 250553Z 2506/2606 07005KT 6SM -RA OVC008
     FM251300 10004KT 2SM -RA BR OVC006
     FM251900 22006KT 5SM -SHRA BR OVC008
     FM252200 21006KT P6SM VCSH OVC012
     FM260300 19004KT 5SM BR OVC008=

USA.gov is the U.S. government's official web portal to all federal, state and local government web resources and services.